sensor_id;sensor_type;location;lat;lon;timestamp;P1;durP1;ratioP1;P2;durP2;ratioP2
24335;SDS011;75016;52.400;16.880;2024-01-11T00:00:09;33.10;;;16.30;;
24335;SDS011;75016;52.400;16.880;2024-01-11T00:02:56;28.40;;;14.60;;
24335;SDS011;75016;52.400;16.880;2024-01-11T00:05:22;25.30;;;12.70;;
24335;SDS011;75016;52.400;16.880;2024-01-11T00:07:49;21.50;;;11.00;;
24335;SDS011;75016;52.400;16.880;2024-01-11T00:10:16;25.40;;;13.00;;
24335;SDS011;75016;52.400;16.880;2024-01-11T00:12:42;23.40;;;11.90;;
24335;SDS011;75016;52.400;16.880;2024-01-11T00:15:09;23.20;;;12.00;;
24335;SDS011;75016;52.400;16.880;2024-01-11T00:17:35;18.30;;;9.10;;
24335;SDS011;75016;52.400;16.880;2024-01-11T00:20:02;20.00;;;11.00;;
24335;SDS011;75016;52.400;16.880;2024-01-11T00:22:29;20.70;;;11.30;;
24335;SDS011;75016;52.400;16.880;2024-01-11T00:24:55;18.20;;;10.10;;
24335;SDS011;75016;52.400;16.880;2024-01-11T00:27:22;20.80;;;11.20;;
24335;SDS011;75016;52.400;16.880;2024-01-11T00:29:48;19.50;;;10.30;;
24335;SDS011;75016;52.400;16.880;2024-01-11T00:32:15;24.40;;;11.90;;
24335;SDS011;75016;52.400;16.880;2024-01-11T00:34:41;25.60;;;13.30;;
24335;SDS011;75016;52.400;16.880;2024-01-11T00:37:08;29.70;;;14.90;;
24335;SDS011;75016;52.400;16.880;2024-01-11T00:39:34;25.90;;;14.50;;
24335;SDS011;75016;52.400;16.880;2024-01-11T00:42:01;29.80;;;15.10;;
24335;SDS011;75016;52.400;16.880;2024-01-11T00:44:28;27.60;;;13.80;;
24335;SDS011;75016;52.400;16.880;2024-01-11T00:46:54;24.90;;;13.90;;
24335;SDS011;75016;52.400;16.880;2024-01-11T00:49:21;26.20;;;13.80;;
24335;SDS011;75016;52.400;16.880;2024-01-11T00:51:47;26.50;;;13.20;;
24335;SDS011;75016;52.400;16.880;2024-01-11T00:54:14;26.80;;;13.30;;
24335;SDS011;75016;52.400;16.880;2024-01-11T00:56:40;26.70;;;12.60;;
24335;SDS011;75016;52.400;16.880;2024-01-11T00:59:07;26.60;;;13.00;;
24335;SDS011;75016;52.400;16.880;2024-01-11T01:01:34;21.30;;;11.30;;
24335;SDS011;75016;52.400;16.880;2024-01-11T01:04:00;22.20;;;11.70;;
24335;SDS011;75016;52.400;16.880;2024-01-11T01:06:26;23.50;;;12.00;;
24335;SDS011;75016;52.400;16.880;2024-01-11T01:08:54;26.80;;;13.20;;
24335;SDS011;75016;52.400;16.880;2024-01-11T01:11:21;28.30;;;13.70;;
24335;SDS011;75016;52.400;16.880;2024-01-11T01:13:48;24.30;;;12.20;;
24335;SDS011;75016;52.400;16.880;2024-01-11T01:16:14;23.70;;;13.10;;
24335;SDS011;75016;52.400;16.880;2024-01-11T01:18:41;25.30;;;13.20;;
24335;SDS011;75016;52.400;16.880;2024-01-11T01:21:08;23.00;;;12.70;;
24335;SDS011;75016;52.400;16.880;2024-01-11T01:23:34;23.90;;;13.60;;
24335;SDS011;75016;52.400;16.880;2024-01-11T01:26:00;26.80;;;14.00;;
24335;SDS011;75016;52.400;16.880;2024-01-11T01:28:27;25.20;;;13.90;;
24335;SDS011;75016;52.400;16.880;2024-01-11T01:30:53;25.90;;;14.80;;
24335;SDS011;75016;52.400;16.880;2024-01-11T01:33:20;29.90;;;15.60;;
24335;SDS011;75016;52.400;16.880;2024-01-11T01:35:46;28.40;;;16.30;;
24335;SDS011;75016;52.400;16.880;2024-01-11T01:38:13;27.20;;;14.40;;
24335;SDS011;75016;52.400;16.880;2024-01-11T01:40:39;26.10;;;15.00;;
24335;SDS011;75016;52.400;16.880;2024-01-11T01:43:06;28.90;;;15.70;;
24335;SDS011;75016;52.400;16.880;2024-01-11T01:45:35;30.30;;;16.00;;
24335;SDS011;75016;52.400;16.880;2024-01-11T01:48:02;28.30;;;16.20;;
24335;SDS011;75016;52.400;16.880;2024-01-11T01:50:29;28.00;;;15.80;;
24335;SDS011;75016;52.400;16.880;2024-01-11T01:52:55;31.30;;;17.20;;
24335;SDS011;75016;52.400;16.880;2024-01-11T01:55:22;32.40;;;16.80;;
24335;SDS011;75016;52.400;16.880;2024-01-11T01:57:49;28.40;;;15.70;;
24335;SDS011;75016;52.400;16.880;2024-01-11T02:00:18;30.90;;;17.30;;
24335;SDS011;75016;52.400;16.880;2024-01-11T02:02:44;35.40;;;17.50;;
24335;SDS011;75016;52.400;16.880;2024-01-11T02:05:16;34.30;;;19.10;;
24335;SDS011;75016;52.400;16.880;2024-01-11T02:07:44;36.10;;;19.50;;
24335;SDS011;75016;52.400;16.880;2024-01-11T02:10:10;34.50;;;19.60;;
24335;SDS011;75016;52.400;16.880;2024-01-11T02:12:38;35.00;;;20.50;;
24335;SDS011;75016;52.400;16.880;2024-01-11T02:15:05;38.00;;;20.70;;
24335;SDS011;75016;52.400;16.880;2024-01-11T02:17:32;40.20;;;22.00;;
24335;SDS011;75016;52.400;16.880;2024-01-11T02:19:59;40.60;;;21.80;;
24335;SDS011;75016;52.400;16.880;2024-01-11T02:22:28;44.30;;;22.20;;
24335;SDS011;75016;52.400;16.880;2024-01-11T02:24:58;37.20;;;20.90;;
24335;SDS011;75016;52.400;16.880;2024-01-11T02:27:24;36.80;;;20.30;;
24335;SDS011;75016;52.400;16.880;2024-01-11T02:29:51;37.10;;;20.10;;
24335;SDS011;75016;52.400;16.880;2024-01-11T02:32:17;29.20;;;16.40;;
24335;SDS011;75016;52.400;16.880;2024-01-11T02:34:44;30.90;;;16.40;;
24335;SDS011;75016;52.400;16.880;2024-01-11T02:37:11;24.10;;;13.80;;
24335;SDS011;75016;52.400;16.880;2024-01-11T02:39:37;25.80;;;13.60;;
24335;SDS011;75016;52.400;16.880;2024-01-11T02:42:04;26.60;;;14.30;;
24335;SDS011;75016;52.400;16.880;2024-01-11T02:44:30;34.20;;;18.30;;
24335;SDS011;75016;52.400;16.880;2024-01-11T02:46:57;33.20;;;17.30;;
24335;SDS011;75016;52.400;16.880;2024-01-11T02:49:24;32.10;;;17.30;;
24335;SDS011;75016;52.400;16.880;2024-01-11T02:51:51;35.50;;;17.90;;
24335;SDS011;75016;52.400;16.880;2024-01-11T02:54:17;38.00;;;19.70;;
24335;SDS011;75016;52.400;16.880;2024-01-11T02:56:44;34.90;;;18.10;;
24335;SDS011;75016;52.400;16.880;2024-01-11T02:59:10;34.10;;;17.70;;
24335;SDS011;75016;52.400;16.880;2024-01-11T03:01:37;33.60;;;16.70;;
24335;SDS011;75016;52.400;16.880;2024-01-11T03:04:03;34.70;;;17.40;;
24335;SDS011;75016;52.400;16.880;2024-01-11T03:06:30;32.30;;;16.30;;
24335;SDS011;75016;52.400;16.880;2024-01-11T03:08:57;34.50;;;17.10;;
24335;SDS011;75016;52.400;16.880;2024-01-11T03:11:23;30.80;;;15.10;;
24335;SDS011;75016;52.400;16.880;2024-01-11T03:13:49;33.40;;;16.80;;
24335;SDS011;75016;52.400;16.880;2024-01-11T03:16:16;32.20;;;15.20;;
24335;SDS011;75016;52.400;16.880;2024-01-11T03:18:42;28.10;;;14.00;;
24335;SDS011;75016;52.400;16.880;2024-01-11T03:21:09;28.90;;;15.20;;
24335;SDS011;75016;52.400;16.880;2024-01-11T03:23:35;33.90;;;16.00;;
24335;SDS011;75016;52.400;16.880;2024-01-11T03:26:02;27.10;;;13.50;;
24335;SDS011;75016;52.400;16.880;2024-01-11T03:28:28;25.90;;;13.10;;
24335;SDS011;75016;52.400;16.880;2024-01-11T03:30:55;27.80;;;14.00;;
24335;SDS011;75016;52.400;16.880;2024-01-11T03:33:21;31.00;;;15.20;;
24335;SDS011;75016;52.400;16.880;2024-01-11T03:35:48;33.30;;;15.60;;
24335;SDS011;75016;52.400;16.880;2024-01-11T03:38:14;27.20;;;14.40;;
24335;SDS011;75016;52.400;16.880;2024-01-11T03:40:41;30.00;;;13.80;;
24335;SDS011;75016;52.400;16.880;2024-01-11T03:43:08;30.00;;;14.90;;
24335;SDS011;75016;52.400;16.880;2024-01-11T03:45:34;30.50;;;13.80;;
24335;SDS011;75016;52.400;16.880;2024-01-11T03:48:00;28.00;;;14.00;;
24335;SDS011;75016;52.400;16.880;2024-01-11T03:50:27;28.40;;;13.00;;
24335;SDS011;75016;52.400;16.880;2024-01-11T03:52:53;29.30;;;13.70;;
24335;SDS011;75016;52.400;16.880;2024-01-11T03:55:20;29.00;;;13.90;;
24335;SDS011;75016;52.400;16.880;2024-01-11T03:57:46;28.90;;;13.80;;
24335;SDS011;75016;52.400;16.880;2024-01-11T04:00:13;31.20;;;15.30;;
24335;SDS011;75016;52.400;16.880;2024-01-11T04:02:40;32.00;;;15.00;;
24335;SDS011;75016;52.400;16.880;2024-01-11T04:05:07;29.60;;;15.00;;
24335;SDS011;75016;52.400;16.880;2024-01-11T04:07:34;33.00;;;15.00;;
24335;SDS011;75016;52.400;16.880;2024-01-11T04:10:00;27.30;;;13.90;;
24335;SDS011;75016;52.400;16.880;2024-01-11T04:12:26;30.30;;;14.30;;
24335;SDS011;75016;52.400;16.880;2024-01-11T04:14:53;29.60;;;13.60;;
24335;SDS011;75016;52.400;16.880;2024-01-11T04:17:19;31.60;;;14.90;;
24335;SDS011;75016;52.400;16.880;2024-01-11T04:19:46;30.30;;;13.60;;
24335;SDS011;75016;52.400;16.880;2024-01-11T04:22:12;29.90;;;14.60;;
24335;SDS011;75016;52.400;16.880;2024-01-11T04:24:41;35.90;;;16.00;;
24335;SDS011;75016;52.400;16.880;2024-01-11T04:27:09;32.70;;;15.30;;
24335;SDS011;75016;52.400;16.880;2024-01-11T04:29:35;36.40;;;16.60;;
24335;SDS011;75016;52.400;16.880;2024-01-11T04:32:02;35.00;;;15.60;;
24335;SDS011;75016;52.400;16.880;2024-01-11T04:34:29;35.00;;;15.60;;
24335;SDS011;75016;52.400;16.880;2024-01-11T04:36:55;30.60;;;14.60;;
24335;SDS011;75016;52.400;16.880;2024-01-11T04:39:22;33.00;;;16.30;;
24335;SDS011;75016;52.400;16.880;2024-01-11T04:41:48;28.50;;;14.30;;
24335;SDS011;75016;52.400;16.880;2024-01-11T04:44:15;32.00;;;15.00;;
24335;SDS011;75016;52.400;16.880;2024-01-11T04:46:41;30.40;;;13.70;;
24335;SDS011;75016;52.400;16.880;2024-01-11T04:49:08;32.40;;;13.20;;
24335;SDS011;75016;52.400;16.880;2024-01-11T04:51:34;32.20;;;14.80;;
24335;SDS011;75016;52.400;16.880;2024-01-11T04:54:01;27.40;;;13.10;;
24335;SDS011;75016;52.400;16.880;2024-01-11T04:56:27;30.80;;;14.10;;
24335;SDS011;75016;52.400;16.880;2024-01-11T04:58:55;31.90;;;14.10;;
24335;SDS011;75016;52.400;16.880;2024-01-11T05:01:22;27.80;;;12.80;;
24335;SDS011;75016;52.400;16.880;2024-01-11T05:03:49;27.50;;;12.40;;
24335;SDS011;75016;52.400;16.880;2024-01-11T05:06:16;28.20;;;12.60;;
24335;SDS011;75016;52.400;16.880;2024-01-11T05:08:51;31.40;;;13.10;;
24335;SDS011;75016;52.400;16.880;2024-01-11T05:11:19;24.20;;;12.00;;
24335;SDS011;75016;52.400;16.880;2024-01-11T05:13:47;25.70;;;12.20;;
24335;SDS011;75016;52.400;16.880;2024-01-11T05:16:21;25.50;;;11.90;;
24335;SDS011;75016;52.400;16.880;2024-01-11T05:18:52;23.10;;;11.80;;
24335;SDS011;75016;52.400;16.880;2024-01-11T05:21:21;23.50;;;11.50;;
24335;SDS011;75016;52.400;16.880;2024-01-11T05:23:47;21.40;;;10.80;;
24335;SDS011;75016;52.400;16.880;2024-01-11T05:26:15;21.90;;;10.30;;
24335;SDS011;75016;52.400;16.880;2024-01-11T05:28:43;21.20;;;10.40;;
24335;SDS011;75016;52.400;16.880;2024-01-11T05:31:10;21.30;;;9.60;;
24335;SDS011;75016;52.400;16.880;2024-01-11T05:33:38;20.80;;;10.20;;
24335;SDS011;75016;52.400;16.880;2024-01-11T05:36:05;20.50;;;10.00;;
24335;SDS011;75016;52.400;16.880;2024-01-11T05:38:32;21.30;;;9.70;;
24335;SDS011;75016;52.400;16.880;2024-01-11T05:40:59;22.40;;;10.50;;
24335;SDS011;75016;52.400;16.880;2024-01-11T05:43:26;24.00;;;10.30;;
24335;SDS011;75016;52.400;16.880;2024-01-11T05:45:52;20.10;;;9.90;;
24335;SDS011;75016;52.400;16.880;2024-01-11T05:48:19;23.50;;;9.60;;
24335;SDS011;75016;52.400;16.880;2024-01-11T05:50:45;21.80;;;9.90;;
24335;SDS011;75016;52.400;16.880;2024-01-11T05:53:12;22.40;;;10.50;;
24335;SDS011;75016;52.400;16.880;2024-01-11T05:55:39;23.70;;;11.00;;
24335;SDS011;75016;52.400;16.880;2024-01-11T05:58:06;23.20;;;10.90;;
24335;SDS011;75016;52.400;16.880;2024-01-11T06:00:33;19.00;;;10.20;;
24335;SDS011;75016;52.400;16.880;2024-01-11T06:02:59;22.90;;;10.60;;
24335;SDS011;75016;52.400;16.880;2024-01-11T06:05:26;25.50;;;11.40;;
24335;SDS011;75016;52.400;16.880;2024-01-11T06:07:53;20.70;;;10.20;;
24335;SDS011;75016;52.400;16.880;2024-01-11T06:10:19;21.70;;;10.20;;
24335;SDS011;75016;52.400;16.880;2024-01-11T06:12:46;20.00;;;10.10;;
24335;SDS011;75016;52.400;16.880;2024-01-11T06:15:12;20.30;;;9.60;;
24335;SDS011;75016;52.400;16.880;2024-01-11T06:17:39;21.00;;;10.20;;
24335;SDS011;75016;52.400;16.880;2024-01-11T06:20:05;23.10;;;10.30;;
24335;SDS011;75016;52.400;16.880;2024-01-11T06:22:32;23.50;;;10.30;;
24335;SDS011;75016;52.400;16.880;2024-01-11T06:24:58;22.70;;;10.60;;
24335;SDS011;75016;52.400;16.880;2024-01-11T06:27:25;21.50;;;8.20;;
24335;SDS011;75016;52.400;16.880;2024-01-11T06:29:52;19.80;;;8.50;;
24335;SDS011;75016;52.400;16.880;2024-01-11T06:32:19;20.50;;;8.80;;
24335;SDS011;75016;52.400;16.880;2024-01-11T06:34:45;21.20;;;9.80;;
24335;SDS011;75016;52.400;16.880;2024-01-11T06:37:13;16.90;;;7.40;;
24335;SDS011;75016;52.400;16.880;2024-01-11T06:39:40;15.50;;;7.40;;
24335;SDS011;75016;52.400;16.880;2024-01-11T06:42:06;19.00;;;9.30;;
24335;SDS011;75016;52.400;16.880;2024-01-11T06:44:33;20.30;;;9.90;;
24335;SDS011;75016;52.400;16.880;2024-01-11T06:46:59;21.60;;;10.30;;
24335;SDS011;75016;52.400;16.880;2024-01-11T06:49:27;20.50;;;10.00;;
24335;SDS011;75016;52.400;16.880;2024-01-11T06:51:54;22.80;;;9.60;;
24335;SDS011;75016;52.400;16.880;2024-01-11T06:54:20;17.60;;;9.40;;
24335;SDS011;75016;52.400;16.880;2024-01-11T06:56:47;16.10;;;8.10;;
24335;SDS011;75016;52.400;16.880;2024-01-11T06:59:13;19.90;;;9.30;;
24335;SDS011;75016;52.400;16.880;2024-01-11T07:01:40;22.40;;;10.30;;
24335;SDS011;75016;52.400;16.880;2024-01-11T07:04:06;22.60;;;10.30;;
24335;SDS011;75016;52.400;16.880;2024-01-11T07:06:33;16.50;;;8.40;;
24335;SDS011;75016;52.400;16.880;2024-01-11T07:08:59;21.60;;;9.30;;
24335;SDS011;75016;52.400;16.880;2024-01-11T07:11:26;20.60;;;8.50;;
24335;SDS011;75016;52.400;16.880;2024-01-11T07:13:52;21.10;;;9.80;;
24335;SDS011;75016;52.400;16.880;2024-01-11T07:16:20;23.30;;;11.00;;
24335;SDS011;75016;52.400;16.880;2024-01-11T07:18:46;24.20;;;11.10;;
24335;SDS011;75016;52.400;16.880;2024-01-11T07:21:13;24.00;;;10.80;;
24335;SDS011;75016;52.400;16.880;2024-01-11T07:23:39;19.90;;;9.60;;
24335;SDS011;75016;52.400;16.880;2024-01-11T07:26:06;20.00;;;9.60;;
24335;SDS011;75016;52.400;16.880;2024-01-11T07:28:32;25.60;;;10.10;;
24335;SDS011;75016;52.400;16.880;2024-01-11T07:30:59;21.20;;;8.90;;
24335;SDS011;75016;52.400;16.880;2024-01-11T07:33:25;23.70;;;10.90;;
24335;SDS011;75016;52.400;16.880;2024-01-11T07:35:52;21.80;;;9.70;;
24335;SDS011;75016;52.400;16.880;2024-01-11T07:38:18;20.60;;;10.30;;
24335;SDS011;75016;52.400;16.880;2024-01-11T07:40:45;17.10;;;8.70;;
24335;SDS011;75016;52.400;16.880;2024-01-11T07:43:11;22.70;;;10.70;;
24335;SDS011;75016;52.400;16.880;2024-01-11T07:45:38;20.80;;;9.80;;
24335;SDS011;75016;52.400;16.880;2024-01-11T07:48:05;20.80;;;10.50;;
24335;SDS011;75016;52.400;16.880;2024-01-11T07:50:32;20.30;;;10.10;;
24335;SDS011;75016;52.400;16.880;2024-01-11T07:52:58;21.90;;;10.60;;
24335;SDS011;75016;52.400;16.880;2024-01-11T07:55:25;20.00;;;10.10;;
24335;SDS011;75016;52.400;16.880;2024-01-11T07:57:52;20.50;;;9.90;;
24335;SDS011;75016;52.400;16.880;2024-01-11T08:00:19;19.90;;;9.50;;
24335;SDS011;75016;52.400;16.880;2024-01-11T08:02:45;19.30;;;9.20;;
24335;SDS011;75016;52.400;16.880;2024-01-11T08:05:12;21.50;;;11.00;;
24335;SDS011;75016;52.400;16.880;2024-01-11T08:07:38;24.70;;;10.70;;
24335;SDS011;75016;52.400;16.880;2024-01-11T08:10:05;25.00;;;11.00;;
24335;SDS011;75016;52.400;16.880;2024-01-11T08:12:32;23.00;;;11.00;;
24335;SDS011;75016;52.400;16.880;2024-01-11T08:14:59;21.90;;;10.80;;
24335;SDS011;75016;52.400;16.880;2024-01-11T08:17:26;20.90;;;10.30;;
24335;SDS011;75016;52.400;16.880;2024-01-11T08:19:52;22.50;;;10.20;;
24335;SDS011;75016;52.400;16.880;2024-01-11T08:22:19;22.30;;;9.90;;
24335;SDS011;75016;52.400;16.880;2024-01-11T08:24:46;22.80;;;10.60;;
24335;SDS011;75016;52.400;16.880;2024-01-11T08:27:13;26.50;;;11.60;;
24335;SDS011;75016;52.400;16.880;2024-01-11T08:29:43;24.30;;;11.70;;
24335;SDS011;75016;52.400;16.880;2024-01-11T08:32:09;26.40;;;11.90;;
24335;SDS011;75016;52.400;16.880;2024-01-11T08:34:36;28.60;;;12.40;;
24335;SDS011;75016;52.400;16.880;2024-01-11T08:37:03;24.80;;;11.40;;
24335;SDS011;75016;52.400;16.880;2024-01-11T08:39:29;24.00;;;10.70;;
24335;SDS011;75016;52.400;16.880;2024-01-11T08:41:56;23.00;;;10.90;;
24335;SDS011;75016;52.400;16.880;2024-01-11T08:44:23;24.60;;;11.50;;
24335;SDS011;75016;52.400;16.880;2024-01-11T08:46:49;23.80;;;11.30;;
24335;SDS011;75016;52.400;16.880;2024-01-11T08:49:15;27.40;;;12.20;;
24335;SDS011;75016;52.400;16.880;2024-01-11T08:51:42;30.00;;;13.60;;
24335;SDS011;75016;52.400;16.880;2024-01-11T08:54:08;25.50;;;11.60;;
24335;SDS011;75016;52.400;16.880;2024-01-11T08:56:37;21.20;;;10.40;;
24335;SDS011;75016;52.400;16.880;2024-01-11T08:59:05;26.70;;;11.50;;
24335;SDS011;75016;52.400;16.880;2024-01-11T09:01:31;28.40;;;12.30;;
24335;SDS011;75016;52.400;16.880;2024-01-11T09:03:58;23.60;;;11.90;;
24335;SDS011;75016;52.400;16.880;2024-01-11T09:06:25;26.90;;;12.50;;
24335;SDS011;75016;52.400;16.880;2024-01-11T09:08:53;26.10;;;13.40;;
24335;SDS011;75016;52.400;16.880;2024-01-11T09:11:20;27.70;;;13.10;;
24335;SDS011;75016;52.400;16.880;2024-01-11T09:13:46;26.00;;;12.00;;
24335;SDS011;75016;52.400;16.880;2024-01-11T09:16:16;26.00;;;12.80;;
24335;SDS011;75016;52.400;16.880;2024-01-11T09:18:43;29.80;;;13.10;;
24335;SDS011;75016;52.400;16.880;2024-01-11T09:21:10;29.20;;;13.40;;
24335;SDS011;75016;52.400;16.880;2024-01-11T09:23:37;24.60;;;12.10;;
24335;SDS011;75016;52.400;16.880;2024-01-11T09:26:04;26.80;;;13.50;;
24335;SDS011;75016;52.400;16.880;2024-01-11T09:28:31;25.00;;;12.10;;
24335;SDS011;75016;52.400;16.880;2024-01-11T09:30:57;26.00;;;12.60;;
24335;SDS011;75016;52.400;16.880;2024-01-11T09:33:26;29.10;;;13.80;;
24335;SDS011;75016;52.400;16.880;2024-01-11T09:35:52;27.60;;;14.50;;
24335;SDS011;75016;52.400;16.880;2024-01-11T09:38:20;27.00;;;12.80;;
24335;SDS011;75016;52.400;16.880;2024-01-11T09:40:47;29.80;;;14.10;;
24335;SDS011;75016;52.400;16.880;2024-01-11T09:43:20;30.60;;;14.80;;
24335;SDS011;75016;52.400;16.880;2024-01-11T09:45:48;29.20;;;14.10;;
24335;SDS011;75016;52.400;16.880;2024-01-11T09:48:16;30.40;;;14.50;;
24335;SDS011;75016;52.400;16.880;2024-01-11T09:50:43;31.10;;;14.50;;
24335;SDS011;75016;52.400;16.880;2024-01-11T09:53:10;29.60;;;14.40;;
24335;SDS011;75016;52.400;16.880;2024-01-11T09:55:37;28.90;;;14.00;;
24335;SDS011;75016;52.400;16.880;2024-01-11T09:58:04;28.70;;;13.70;;
24335;SDS011;75016;52.400;16.880;2024-01-11T10:00:32;28.10;;;14.80;;
24335;SDS011;75016;52.400;16.880;2024-01-11T10:02:59;31.00;;;15.80;;
24335;SDS011;75016;52.400;16.880;2024-01-11T10:05:26;30.10;;;15.00;;
24335;SDS011;75016;52.400;16.880;2024-01-11T10:07:55;33.20;;;15.50;;
24335;SDS011;75016;52.400;16.880;2024-01-11T10:10:22;30.80;;;14.90;;
24335;SDS011;75016;52.400;16.880;2024-01-11T10:12:48;32.10;;;15.40;;
24335;SDS011;75016;52.400;16.880;2024-01-11T10:15:15;34.20;;;15.50;;
24335;SDS011;75016;52.400;16.880;2024-01-11T10:17:42;26.40;;;13.50;;
24335;SDS011;75016;52.400;16.880;2024-01-11T10:22:40;37.30;;;16.50;;
24335;SDS011;75016;52.400;16.880;2024-01-11T10:25:08;34.90;;;16.50;;
24335;SDS011;75016;52.400;16.880;2024-01-11T10:27:40;32.00;;;15.70;;
24335;SDS011;75016;52.400;16.880;2024-01-11T10:30:10;23.50;;;11.10;;
24335;SDS011;75016;52.400;16.880;2024-01-11T10:32:39;33.00;;;16.80;;
24335;SDS011;75016;52.400;16.880;2024-01-11T10:35:06;30.80;;;15.10;;
24335;SDS011;75016;52.400;16.880;2024-01-11T10:37:32;29.00;;;13.60;;
24335;SDS011;75016;52.400;16.880;2024-01-11T10:40:03;35.80;;;16.60;;
24335;SDS011;75016;52.400;16.880;2024-01-11T10:42:36;31.10;;;15.10;;
24335;SDS011;75016;52.400;16.880;2024-01-11T10:45:10;29.60;;;15.30;;
24335;SDS011;75016;52.400;16.880;2024-01-11T10:47:41;36.20;;;16.80;;
24335;SDS011;75016;52.400;16.880;2024-01-11T10:50:21;30.40;;;14.80;;
24335;SDS011;75016;52.400;16.880;2024-01-11T10:55:31;36.20;;;17.20;;
24335;SDS011;75016;52.400;16.880;2024-01-11T10:57:59;38.00;;;17.40;;
24335;SDS011;75016;52.400;16.880;2024-01-11T11:00:30;36.30;;;16.80;;
24335;SDS011;75016;52.400;16.880;2024-01-11T11:02:57;34.00;;;16.80;;
24335;SDS011;75016;52.400;16.880;2024-01-11T11:05:27;38.10;;;18.80;;
24335;SDS011;75016;52.400;16.880;2024-01-11T11:07:56;34.20;;;17.60;;
24335;SDS011;75016;52.400;16.880;2024-01-11T11:10:28;39.00;;;18.00;;
24335;SDS011;75016;52.400;16.880;2024-01-11T11:12:56;37.00;;;17.50;;
24335;SDS011;75016;52.400;16.880;2024-01-11T11:15:26;38.70;;;17.90;;
24335;SDS011;75016;52.400;16.880;2024-01-11T11:17:54;35.90;;;18.00;;
24335;SDS011;75016;52.400;16.880;2024-01-11T11:20:22;35.50;;;17.70;;
24335;SDS011;75016;52.400;16.880;2024-01-11T11:25:31;39.90;;;19.40;;
24335;SDS011;75016;52.400;16.880;2024-01-11T11:27:58;41.00;;;19.50;;
24335;SDS011;75016;52.400;16.880;2024-01-11T11:30:27;41.80;;;19.70;;
24335;SDS011;75016;52.400;16.880;2024-01-11T11:32:54;39.70;;;19.00;;
24335;SDS011;75016;52.400;16.880;2024-01-11T11:35:22;43.50;;;20.60;;
24335;SDS011;75016;52.400;16.880;2024-01-11T11:37:56;44.80;;;21.40;;
24335;SDS011;75016;52.400;16.880;2024-01-11T11:40:38;42.10;;;20.90;;
24335;SDS011;75016;52.400;16.880;2024-01-11T11:43:10;36.60;;;18.00;;
24335;SDS011;75016;52.400;16.880;2024-01-11T11:45:37;42.70;;;21.20;;
24335;SDS011;75016;52.400;16.880;2024-01-11T11:48:47;40.70;;;21.00;;
24335;SDS011;75016;52.400;16.880;2024-01-11T11:51:14;41.70;;;20.90;;
24335;SDS011;75016;52.400;16.880;2024-01-11T11:53:42;37.70;;;17.90;;
24335;SDS011;75016;52.400;16.880;2024-01-11T11:56:10;40.50;;;20.70;;
24335;SDS011;75016;52.400;16.880;2024-01-11T11:58:37;37.30;;;20.10;;
24335;SDS011;75016;52.400;16.880;2024-01-11T12:01:03;41.00;;;20.60;;
24335;SDS011;75016;52.400;16.880;2024-01-11T12:03:34;43.80;;;21.40;;
24335;SDS011;75016;52.400;16.880;2024-01-11T12:06:06;44.70;;;22.50;;
24335;SDS011;75016;52.400;16.880;2024-01-11T12:08:34;44.80;;;22.70;;
24335;SDS011;75016;52.400;16.880;2024-01-11T12:11:02;43.60;;;22.10;;
24335;SDS011;75016;52.400;16.880;2024-01-11T12:13:29;43.10;;;22.60;;
24335;SDS011;75016;52.400;16.880;2024-01-11T12:15:59;45.60;;;21.80;;
24335;SDS011;75016;52.400;16.880;2024-01-11T12:18:26;46.40;;;22.10;;
24335;SDS011;75016;52.400;16.880;2024-01-11T12:20:53;42.70;;;22.60;;
24335;SDS011;75016;52.400;16.880;2024-01-11T12:23:19;42.10;;;21.60;;
24335;SDS011;75016;52.400;16.880;2024-01-11T12:25:46;40.40;;;21.40;;
24335;SDS011;75016;52.400;16.880;2024-01-11T12:28:13;39.40;;;21.40;;
24335;SDS011;75016;52.400;16.880;2024-01-11T12:30:41;29.30;;;17.30;;
24335;SDS011;75016;52.400;16.880;2024-01-11T12:33:08;31.50;;;18.00;;
24335;SDS011;75016;52.400;16.880;2024-01-11T12:35:36;26.60;;;15.70;;
24335;SDS011;75016;52.400;16.880;2024-01-11T12:38:04;25.60;;;15.00;;
24335;SDS011;75016;52.400;16.880;2024-01-11T12:40:37;25.50;;;15.20;;
24335;SDS011;75016;52.400;16.880;2024-01-11T12:43:04;23.10;;;14.30;;
24335;SDS011;75016;52.400;16.880;2024-01-11T12:45:32;28.50;;;17.00;;
24335;SDS011;75016;52.400;16.880;2024-01-11T12:47:59;27.50;;;16.10;;
24335;SDS011;75016;52.400;16.880;2024-01-11T12:50:26;25.40;;;14.90;;
24335;SDS011;75016;52.400;16.880;2024-01-11T12:55:34;29.30;;;15.40;;
24335;SDS011;75016;52.400;16.880;2024-01-11T12:58:04;26.90;;;15.20;;
24335;SDS011;75016;52.400;16.880;2024-01-11T13:00:32;29.30;;;14.70;;
24335;SDS011;75016;52.400;16.880;2024-01-11T13:02:58;23.10;;;14.20;;
24335;SDS011;75016;52.400;16.880;2024-01-11T13:05:25;25.00;;;14.00;;
24335;SDS011;75016;52.400;16.880;2024-01-11T13:07:52;25.00;;;14.60;;
24335;SDS011;75016;52.400;16.880;2024-01-11T13:10:19;23.40;;;13.40;;
24335;SDS011;75016;52.400;16.880;2024-01-11T13:12:45;24.80;;;14.30;;
24335;SDS011;75016;52.400;16.880;2024-01-11T13:15:12;22.60;;;13.40;;
24335;SDS011;75016;52.400;16.880;2024-01-11T13:17:38;22.60;;;11.80;;
24335;SDS011;75016;52.400;16.880;2024-01-11T13:20:05;22.40;;;13.10;;
24335;SDS011;75016;52.400;16.880;2024-01-11T13:22:33;24.40;;;13.40;;
24335;SDS011;75016;52.400;16.880;2024-01-11T13:25:00;21.00;;;12.40;;
24335;SDS011;75016;52.400;16.880;2024-01-11T13:27:26;23.00;;;13.10;;
24335;SDS011;75016;52.400;16.880;2024-01-11T13:29:53;20.00;;;11.90;;
24335;SDS011;75016;52.400;16.880;2024-01-11T13:32:19;23.10;;;12.00;;
24335;SDS011;75016;52.400;16.880;2024-01-11T13:34:48;18.60;;;10.60;;
24335;SDS011;75016;52.400;16.880;2024-01-11T13:37:15;18.50;;;11.60;;
24335;SDS011;75016;52.400;16.880;2024-01-11T13:39:41;22.30;;;12.70;;
24335;SDS011;75016;52.400;16.880;2024-01-11T13:42:08;20.30;;;12.40;;
24335;SDS011;75016;52.400;16.880;2024-01-11T13:44:36;18.60;;;10.90;;
24335;SDS011;75016;52.400;16.880;2024-01-11T13:47:02;18.40;;;10.80;;
24335;SDS011;75016;52.400;16.880;2024-01-11T13:49:29;19.40;;;11.20;;
24335;SDS011;75016;52.400;16.880;2024-01-11T13:51:55;19.10;;;11.30;;
24335;SDS011;75016;52.400;16.880;2024-01-11T13:54:22;20.00;;;11.00;;
24335;SDS011;75016;52.400;16.880;2024-01-11T13:56:49;18.70;;;11.10;;
24335;SDS011;75016;52.400;16.880;2024-01-11T13:59:18;19.50;;;10.80;;
24335;SDS011;75016;52.400;16.880;2024-01-11T14:01:44;19.00;;;11.10;;
24335;SDS011;75016;52.400;16.880;2024-01-11T14:04:11;16.50;;;10.00;;
24335;SDS011;75016;52.400;16.880;2024-01-11T14:06:38;17.80;;;10.50;;
24335;SDS011;75016;52.400;16.880;2024-01-11T14:09:04;16.60;;;10.00;;
24335;SDS011;75016;52.400;16.880;2024-01-11T14:11:35;17.10;;;9.90;;
24335;SDS011;75016;52.400;16.880;2024-01-11T14:14:02;18.40;;;10.20;;
24335;SDS011;75016;52.400;16.880;2024-01-11T14:16:28;17.50;;;9.70;;
24335;SDS011;75016;52.400;16.880;2024-01-11T14:18:55;19.40;;;10.80;;
24335;SDS011;75016;52.400;16.880;2024-01-11T14:21:21;16.10;;;9.90;;